Map

Track Data

SID SEASON NUMBER BASIN SUBBASIN NAME ISO_TIME NATURE LAT LON WMO_WIND WMO_PRES WMO_AGENCY TRACK_TYPE DIST2LAND LANDFALL IFLAG USA_AGENCY USA_ATCF_ID USA_LAT USA_LON USA_RECORD USA_STATUS USA_WIND USA_PRES USA_SSHS USA_R34_NE USA_R34_SE USA_R34_SW USA_R34_NW USA_R50_NE USA_R50_SE USA_R50_SW USA_R50_NW USA_R64_NE USA_R64_SE USA_R64_SW USA_R64_NW USA_POCI USA_ROCI USA_RMW USA_EYE TOKYO_LAT TOKYO_LON TOKYO_GRADE TOKYO_WIND TOKYO_PRES TOKYO_R50_DIR TOKYO_R50_LONG TOKYO_R50_SHORT TOKYO_R30_DIR TOKYO_R30_LONG TOKYO_R30_SHORT TOKYO_LAND CMA_LAT CMA_LON CMA_CAT CMA_WIND CMA_PRES HKO_LAT HKO_LON HKO_CAT HKO_WIND HKO_PRES NEWDELHI_LAT NEWDELHI_LON NEWDELHI_GRADE NEWDELHI_WIND NEWDELHI_PRES NEWDELHI_CI NEWDELHI_DP NEWDELHI_POCI REUNION_LAT REUNION_LON REUNION_TYPE REUNION_WIND REUNION_PRES REUNION_TNUM REUNION_CI REUNION_RMW REUNION_R34_NE REUNION_R34_SE REUNION_R34_SW REUNION_R34_NW REUNION_R50_NE REUNION_R50_SE REUNION_R50_SW REUNION_R50_NW REUNION_R64_NE REUNION_R64_SE REUNION_R64_SW REUNION_R64_NW BOM_LAT BOM_LON BOM_TYPE BOM_WIND BOM_PRES BOM_TNUM BOM_CI BOM_RMW BOM_R34_NE BOM_R34_SE BOM_R34_SW BOM_R34_NW BOM_R50_NE BOM_R50_SE BOM_R50_SW BOM_R50_NW BOM_R64_NE BOM_R64_SE BOM_R64_SW BOM_R64_NW BOM_ROCI BOM_POCI BOM_EYE BOM_POS_METHOD BOM_PRES_METHOD NADI_LAT NADI_LON NADI_CAT NADI_WIND NADI_PRES WELLINGTON_LAT WELLINGTON_LON WELLINGTON_WIND WELLINGTON_PRES DS824_LAT DS824_LON DS824_STAGE DS824_WIND DS824_PRES TD9636_LAT TD9636_LON TD9636_STAGE TD9636_WIND TD9636_PRES TD9635_LAT TD9635_LON TD9635_WIND TD9635_PRES TD9635_ROCI NEUMANN_LAT NEUMANN_LON NEUMANN_CLASS NEUMANN_WIND NEUMANN_PRES MLC_LAT MLC_LON MLC_CLASS MLC_WIND MLC_PRES USA_GUST BOM_GUST BOM_GUST_PER REUNION_GUST REUNION_GUST_PER USA_SEAHGT USA_SEARAD_NE USA_SEARAD_SE USA_SEARAD_SW USA_SEARAD_NW STORM_SPEED STORM_DIR
1973321S11135 1974 125 SI WA INES 1973-11-17 00:00:00 TS -11.2000 134.740 20 bom main 100 95 O_____O__OO___ jtwc_sh SH061974 -11.0000 134.700 -1 -11.5000 134.800 20 20 1.00000 -11.0000 134.700 TC -11.0000 134.700 2 45 45 5 281
1973321S11135 1974 125 SI WA INES 1973-11-17 03:00:00 TS -11.1495 134.478 20 bom main 105 89 P_____O__PP___ SH061974 -10.9125 134.503 -1 -11.5000 134.500 20 20 1.00000 -10.9125 134.503 TC -10.8920 134.528 2 45 45 5 281
1973321S11135 1974 125 SI WA INES 1973-11-17 06:00:00 TS -11.0957 134.200 25 bom main 89 84 O_____O__OP_O_ jtwc_sh SH061974 -10.8000 134.300 -1 -11.5000 134.000 20 25 1.50000 -10.8000 134.300 TC -10.7772 134.335 2 -11.4000 134.400 TC 30 1000 45 45 6 288
1973321S11135 1974 125 SI WA INES 1973-11-17 09:00:00 TS -10.9766 133.941 25 bom main 90 90 P_____O__PP_P_ SH061974 -10.6499 134.080 -1 -11.4000 133.600 20 25 1.50000 -10.6499 134.080 TC -10.6488 134.100 2 -11.3001 134.080 TC 30 1000 45 45 5 300
1973321S11135 1974 125 SI WA INES 1973-11-17 12:00:00 TS -10.8348 133.730 25 bom main 109 93 O_____O__OO_O_ jtwc_sh SH061974 -10.5000 133.800 -1 -11.2000 133.600 20 25 1.50000 -10.5000 133.800 TC -10.5000 133.800 2 -11.2000 133.800 TC 30 1000 45 45 6 296
1973321S11135 1974 125 SI WA INES 1973-11-17 15:00:00 TS -10.7110 133.397 25 bom main 95 84 P_____O__PP_P_ SH061974 -10.4001 133.415 -1 -11.0000 133.200 20 25 2.00000 -10.4001 133.415 TC -10.3307 133.427 2 -11.1000 133.585 TC 30 1000 45 45 7 291
1973321S11135 1974 125 SI WA INES 1973-11-17 18:00:00 TS -10.5947 133.103 25 bom main 92 90 O_____O__OP_O_ jtwc_sh SH061974 -10.3000 133.000 -1 -10.9000 133.100 20 25 2.00000 -10.3000 133.000 TC -10.1680 133.020 2 -11.0000 133.400 TC 30 1000 45 45 6 293
1973321S11135 1974 125 SI WA INES 1973-11-17 21:00:00 TS -10.4652 132.818 25 bom main 95 95 P_____O__PP_P_ SH061974 -10.1200 132.612 -1 -10.8000 132.900 20 25 2.00000 -10.1200 132.612 TC -10.0463 132.627 2 -10.8850 133.207 TC 30 1000 45 45 5 291
1973321S11135 1974 125 SI WA INES 1973-11-18 00:00:00 TS -10.4000 132.583 30 bom main 95 90 O_____O__OO_O_ jtwc_sh SH061974 -10.0000 132.300 -1 -10.8000 132.800 20 30 2.50000 -10.0000 132.300 TC -10.0000 132.300 2 -10.8000 133.000 TC 30 1000 45 45 5 274
1973321S11135 1974 125 SI WA INES 1973-11-18 03:00:00 TS -10.4323 132.361 30 bom main 90 78 P_____O__PP_P_ SH061974 -10.0474 132.113 -1 -10.8000 132.500 20 30 2.50000 -10.0474 132.113 TC -10.0787 132.120 2 -10.7775 132.758 TC 32 998 45 45 4 250
1973321S11135 1974 125 SI WA INES 1973-11-18 06:00:00 TS -10.5387 132.184 30 bom main 78 67 O_____O__OP_O_ jtwc_sh SH061974 -10.2000 132.000 -1 -10.9000 132.300 20 30 2.50000 -10.2000 132.000 TC -10.2321 132.005 2 -10.8000 132.500 TC 35 997 45 45 4 238
1973321S11135 1974 125 SI WA INES 1973-11-18 09:00:00 TS -10.6461 132.005 30 bom main 67 56 P_____O__PP_P_ SH061974 -10.4000 131.907 -1 -10.9000 132.000 20 30 2.50000 -10.4000 131.907 TC -10.4194 131.913 2 -10.8500 132.250 TC 37 996 45 45 4 239
1973321S11135 1974 125 SI WA INES 1973-11-18 12:00:00 TS -10.7500 131.833 35 995 bom main 60 49 O_____O__OO_O_ jtwc_sh SH061974 -10.6000 131.800 -1 -10.9000 131.800 30 35 995 3.00000 -10.6000 131.800 TC -10.6000 131.800 2 -10.9000 132.000 TC 40 995 49 49 4 246
1973321S11135 1974 125 SI WA INES 1973-11-18 15:00:00 TS -10.8093 131.627 35 995 bom main 62 46 P_____O__PP_P_ SH061974 -10.7150 131.622 -1 -10.9000 131.600 30 35 995 3.00000 -10.7150 131.622 TC -10.7184 131.620 2 -10.9075 131.750 TC 40 995 49 49 5 257
1973321S11135 1974 125 SI WA INES 1973-11-18 18:00:00 TS -10.8537 131.385 35 995 bom main 46 44 O_____O__OP_O_ jtwc_sh SH061974 -10.8000 131.400 -1 -10.9000 131.300 30 35 995 3.00000 -10.8000 131.400 TC -10.8224 131.410 2 -10.9000 131.500 TC 40 995 49 49 5 259
1973321S11135 1974 125 SI WA INES 1973-11-18 21:00:00 TS -10.9013 131.137 35 995 bom main 44 44 P_____O__PP_P_ SH061974 -10.9075 131.165 -1 -10.9000 131.000 30 35 995 3.00000 -10.9075 131.165 TC -10.9152 131.170 2 -10.8925 131.257 TC 40 995 49 49 5 259
1973321S11135 1974 125 SI WA INES 1973-11-19 00:00:00 TS -10.9500 130.883 40 995 bom main 49 33 O_____O__OO_O_ jtwc_sh SH061974 -11.0000 130.900 -1 -10.9000 130.800 30 40 995 3.00000 -11.0000 130.900 TC -11.0000 130.900 2 -10.9000 131.000 TC 40 995 55 55 6 258
1973321S11135 1974 125 SI WA INES 1973-11-19 03:00:00 TS -11.0169 130.582 45 995 bom main 33 24 P_____O__PP_P_ SH061974 -11.0500 130.615 -1 -11.0000 130.500 30 45 995 3.00000 -11.0500 130.615 TC -11.0742 130.596 2 -10.9350 130.707 TC 40 994 64 64 6 257
1973321S11135 1974 125 SI WA INES 1973-11-19 06:00:00 TS -11.0904 130.244 50 993 bom main 33 31 O_____O__OP_O_ jtwc_sh SH061974 -11.1000 130.300 -1 -11.1000 130.100 30 50 993 3.50000 -11.1000 130.300 TC -11.1426 130.265 2 -11.0000 130.400 TC 40 994 69 69 7 257
1973321S11135 1974 125 SI WA INES 1973-11-19 09:00:00 TS -11.1595 129.933 50 993 bom main 39 39 P_____O__PP_P_ SH061974 -11.1925 129.943 -1 -11.1000 129.900 30 50 993 3.50000 -11.1925 129.943 TC -11.2148 129.927 2 -11.1000 130.100 TC 40 993 69 69 7 256
1973321S11135 1974 125 SI WA INES 1973-11-19 12:00:00 TS -11.2500 129.600 50 993 bom main 64 58 O_____O__OO_O_ jtwc_sh SH061974 -11.3000 129.600 -1 -11.2000 129.500 30 50 993 3.50000 -11.3000 129.600 TC -11.3000 129.600 2 -11.2000 129.800 TC 40 993 69 69 6 254
1973321S11135 1974 125 SI WA INES 1973-11-19 15:00:00 TS -11.3306 129.324 50 993 bom main 90 90 P_____O__PP_P_ SH061974 -11.3924 129.342 -1 -11.3000 129.200 30 50 993 3.50000 -11.3924 129.342 TC -11.4063 129.323 2 -11.2500 129.492 TC 42 992 69 69 5 253
1973321S11135 1974 125 SI WA INES 1973-11-19 18:00:00 TS -11.4045 129.076 50 993 bom main 109 109 O_____O__OP_O_ jtwc_sh SH061974 -11.5000 129.100 -1 -11.3000 129.000 30 50 993 3.50000 -11.5000 129.100 TC -11.5272 129.057 2 -11.3000 129.200 TC 45 991 69 69 5 250
1973321S11135 1974 125 SI WA INES 1973-11-19 21:00:00 TS -11.5190 128.806 55 990 bom main 141 141 P_____O__PP_P_ SH061974 -11.6425 128.815 -1 -11.4000 128.700 30 55 990 4.00000 -11.6425 128.815 TC -11.6594 128.788 2 -11.3849 128.957 TC 45 990 75 75 6 245
1973321S11135 1974 125 SI WA INES 1973-11-20 00:00:00 TS -11.6500 128.533 60 990 bom main 174 174 O_____O__OO_O_ jtwc_sh SH061974 -11.8000 128.500 -1 -11.5000 128.500 30 60 990 4.00000 -11.8000 128.500 TC -11.8000 128.500 2 -11.5000 128.700 TC 45 990 84 84 7 244
1973321S11135 1974 125 SI WA INES 1973-11-20 03:00:00 TS -11.8001 128.208 65 990 bom main 206 206 P_____O__PP_P_ SH061974 -11.9500 128.157 -1 -11.7000 128.200 40 65 990 4.50000 -11.9500 128.157 TC -11.9307 128.167 2 -11.6350 128.357 TC 50 987 89 89 7 246
1973321S11135 1974 125 SI WA INES 1973-11-20 06:00:00 TS -11.9450 127.869 65 985 bom main 229 195 O_____O__OP_O_ jtwc_sh SH061974 -12.1000 127.800 -1 -11.8000 127.900 40 65 985 4.50000 -12.1000 127.800 TC -12.0700 127.815 2 -11.8000 128.000 TC 55 985 89 89 7 245
1973321S11135 1974 125 SI WA INES 1973-11-20 09:00:00 TS -12.1132 127.525 65 985 bom main 195 168 P_____O__PP_P_ SH061974 -12.2425 127.450 -1 -12.0000 127.500 40 65 985 4.50000 -12.2425 127.450 TC -12.2244 127.455 2 -11.9850 127.685 TC 57 982 89 89 7 241
1973321S11135 1974 125 SI WA INES 1973-11-20 12:00:00 TS -12.3000 127.217 65 980 bom main 168 145 O_____O__OO_O_ jtwc_sh SH061974 -12.4000 127.100 -1 -12.2000 127.300 40 65 980 4.50000 -12.4000 127.100 TC -12.4000 127.100 2 -12.2000 127.400 TC 60 980 89 89 8 238
1973321S11135 1974 125 SI WA INES 1973-11-20 15:00:00 TS -12.5250 126.854 65 980 bom main 145 125 P_____O__PP_P_ SH061974 -12.5850 126.742 -1 -12.5000 126.800 40 65 980 4.50000 -12.5850 126.742 TC -12.5953 126.756 2 -12.4424 127.150 TC 65 977 89 89 8 235
1973321S11135 1974 125 SI WA INES 1973-11-20 18:00:00 TS -12.7521 126.553 70 975 bom main 116 110 O_____O__OP_O_ jtwc_sh SH061974 -12.8000 126.400 -1 -12.7000 126.600 40 70 975 4.50000 -12.8000 126.400 TC -12.8124 126.420 2 -12.7000 126.900 TC 70 975 99 99 7 231
1973321S11135 1974 125 SI WA INES 1973-11-20 21:00:00 TS -12.9889 126.266 75 975 bom main 110 89 P_____O__PP_P_ SH061974 -13.0425 126.085 -1 -12.9000 126.400 40 75 975 4.50000 -13.0425 126.085 TC -13.0484 126.099 2 -12.9501 126.570 TC 72 972 104 104 7 226
1973321S11135 1974 125 SI WA INES 1973-11-21 00:00:00 TS -13.2500 126.017 80 970 bom main 90 60 O_____O__OO_O_ jtwc_sh SH061974 -13.3000 125.800 -1 -13.2000 126.200 40 80 970 5.00000 -13.3000 125.800 TC -13.3000 125.800 2 -13.2000 126.300 TC 75 970 110 110 7 219
1973321S11135 1974 125 SI WA INES 1973-11-21 03:00:00 TS -13.4921 125.844 80 970 bom main 64 46 P_____O__PP_P_ SH061974 -13.5425 125.542 -1 -13.4000 126.100 40 80 970 5.00000 -13.5425 125.542 TC -13.5605 125.524 2 -13.4574 126.220 TC 75 970 110 110 6 210
1973321S11135 1974 125 SI WA INES 1973-11-21 06:00:00 TS -13.7558 125.712 80 970 bom main 46 33 O_____O__OP_O_ jtwc_sh SH061974 -13.8000 125.300 -1 -13.7000 126.100 40 80 970 5.00000 -13.8000 125.300 TC -13.8348 125.270 2 -13.7000 126.200 TC 75 970 110 110 6 210
1973321S11135 1974 125 SI WA INES 1973-11-21 09:00:00 TS -14.0024 125.546 80 970 bom main 35 15 P_____O__PP_P_ SH061974 -14.1000 125.050 -1 -13.9000 126.000 40 80 970 5.00000 -14.1000 125.050 TC -14.1167 125.030 2 -13.8850 126.107 TC 72 972 110 110 6 213
1973321S11135 1974 125 SI WA INES 1973-11-21 12:00:00 TS -14.2833 125.367 80 970 bom main 21 0 O_____O__OO_O_ jtwc_sh SH061974 -14.4000 124.800 -1 -14.2000 125.900 40 80 970 -14.4000 124.800 TC -14.4000 124.800 2 -14.1000 126.000 TC 70 975 110 110 7 213
1973321S11135 1974 125 SI WA INES 1973-11-21 15:00:00 TS -14.5966 125.147 70 980 bom main 10 10 P_____O__PP_P_ SH061974 -14.6500 124.542 -1 -14.5000 125.800 40 70 980 -14.6500 124.542 TC -14.6670 124.519 2 -14.4200 125.900 TC 57 979 99 99 9 215
1973321S11135 1974 125 SI WA INES 1973-11-21 16:00:00 TS -14.7719 125.013 65 985 bom main 21 15 P_____O__PP_P_ SH061974 -14.7309 124.459 -1 -15.0000 125.400 40 65 985 -14.7309 124.459 TC -14.7559 124.427 2 -14.5425 125.867 TC 53 980 89 89 10 214
1973321S11135 1974 125 SI WA INES 1973-11-21 18:00:00 TS -15.0060 124.864 main 15 11 O_____P__OP_O_ jtwc_sh SH061974 -14.9000 124.300 -1 -15.3010 125.233 40 61 986 -14.9000 124.300 TC -14.9351 124.253 2 -14.8000 125.800 TC 45 983 7 210
1973321S11135 1974 125 SI WA INES 1973-11-21 19:00:00 TS -15.0946 124.825 60 987 bom main 11 0 P_____O__PP_P_ SH061974 -14.9943 124.217 -1 -15.3000 125.300 30 60 987 -14.9943 124.217 TC -15.0259 124.173 2 -14.9302 125.764 TC 44 983 84 84 6 202
1973321S11135 1974 125 SI WA INES 1973-11-21 21:00:00 TS -15.3043 124.741 main 11 0 P_____P__PP_P_ SH061974 -15.1925 124.063 -1 -15.5000 125.287 30 53 988 -15.1925 124.063 TC -15.2107 124.035 2 -15.2000 125.693 TC 42 985 7 200
1973321S11135 1974 125 SI WA INES 1973-11-21 22:00:00 TS -15.4087 124.711 50 989 bom main 0 0 P_____O__PP_P_ SH061974 -15.2946 123.996 -1 -15.6000 125.300 30 50 989 -15.2946 123.996 TC -15.3053 123.979 2 -15.3358 125.659 TC 41 986 69 69 6 189
1973321S11135 1974 125 SI WA INES 1973-11-22 00:00:00 TS -15.6167 124.678 main 0 0 O_____P__OO_O_ jtwc_sh SH061974 -15.5000 123.900 -1 -15.8000 125.369 30 46 989 -15.5000 123.900 TC -15.5000 123.900 2 -15.6000 125.600 TC 40 988 6 186
1973321S11135 1974 125 SI WA INES 1973-11-22 01:00:00 TS -15.7211 124.666 45 990 bom main 0 0 P_____O__PP_P_ SH061974 -15.5973 123.869 -1 -15.9000 125.400 30 45 990 -15.5973 123.869 TC -15.6015 123.878 2 -15.7276 125.575 TC 39 988 64 64 6 0
1973321S11135 1974 125 SI WA INES 1973-11-22 03:00:00 TS -15.9292 124.652 main 0 0 P_____P__PP_P_ SH061974 -15.7925 123.847 -1 -16.1000 125.405 30 41 990 -15.7925 123.847 TC -15.8104 123.868 2 -15.9725 125.535 TC 37 989 6 0
1973321S11135 1974 125 SI WA INES 1973-11-22 04:00:00 TS -16.0329 124.652 40 991 bom main 0 0 P_____O__PP_P_ SH061974 -15.8921 123.855 -1 -16.2000 125.400 30 40 991 -15.8921 123.855 TC -15.9173 123.878 2 -16.0879 125.520 TC 36 989 55 55 6 177
1973321S11135 1974 125 SI WA INES 1973-11-22 06:00:00 TS -16.2404 124.670 main 0 0 O_____P__OP_O_ jtwc_sh SH061974 -16.1000 123.900 -1 -16.4079 125.400 30 36 991 -16.1000 123.900 TC -16.1348 123.922 2 -16.3000 125.500 TC 35 990 6 173
1973321S11135 1974 125 SI WA INES 1973-11-22 07:00:00 TS -16.3422 124.685 35 991 bom main 0 0 P_____O__PP_P_ SH061974 -16.2136 123.930 -1 -16.5000 125.400 30 35 991 -16.2136 123.930 TC -16.2449 123.956 2 -16.3947 125.494 TC 34 990 49 49 6 168
1973321S11135 1974 125 SI WA INES 1973-11-22 09:00:00 TS -16.5354 124.729 main 0 0 P_____P__PP_P_ SH061974 -16.4500 124.020 -1 -16.6309 125.400 30 35 991 -16.4500 124.020 TC -16.4667 124.040 2 -16.5650 125.492 TC 32 990 6 166
1973321S11135 1974 125 SI WA INES 1973-11-22 10:00:00 TS -16.6319 124.756 35 991 bom main 0 0 P_____O__PP_P_ SH061974 -16.5691 124.076 -1 -16.7000 125.400 30 35 991 -16.5691 124.076 TC -16.5780 124.090 2 -16.6442 125.495 TC 31 990 49 49 6 164
1973321S11135 1974 125 SI WA INES 1973-11-22 12:00:00 TS -16.8324 124.817 main 0 0 O_____P__OO_O_ jtwc_sh SH061974 -16.8000 124.200 -1 -16.8946 125.400 30 35 991 -16.8000 124.200 TC -16.8000 124.200 2 -16.8000 125.500 TC 30 991 6 163
1973321S11135 1974 125 SI WA INES 1973-11-22 13:00:00 TS -16.9354 124.850 35 992 bom main 0 0 P_____O__PP_P_ SH061974 -16.9031 124.261 -1 -17.0000 125.400 30 35 992 -16.9031 124.261 TC -16.9232 124.278 2 -16.8833 125.500 TC 30 991 49 49 6 161
1973321S11135 1974 125 SI WA INES 1973-11-22 15:00:00 TS -17.1386 124.924 main 0 0 P_____P__PP_P_ SH061974 -17.1000 124.393 -1 -17.2000 125.400 30 31 992 -17.1000 124.393 TC -17.1739 124.456 2 -17.0500 125.500 TC 30 991 6 161
1973321S11135 1974 125 SI WA INES 1973-11-22 16:00:00 TS -17.2396 124.962 30 992 bom main 0 0 P_____O__PP_P_ SH061974 -17.1975 124.461 -1 -17.3000 125.400 20 30 992 -17.1975 124.461 TC -17.2987 124.551 2 -17.1333 125.500 TC 30 991 45 45 6 159
1973321S11135 1974 125 SI WA INES 1973-11-22 18:00:00 TS -17.4413 125.039 main 0 0 O_____P__OP_O_ jtwc_sh SH061974 -17.4000 124.600 -1 -17.5079 125.400 20 30 992 -17.4000 124.600 TC -17.5401 124.734 2 -17.3000 125.500 TC 30 992 7 159
1973321S11135 1974 125 SI WA INES 1973-11-22 19:00:00 TS -17.5457 125.086 30 992 bom main 0 0 P_____O__PP_P_ SH061974 -17.5267 124.701 -1 -17.6000 125.400 20 30 992 -17.5267 124.701 TC -17.6539 124.816 2 -17.3886 125.500 TC 30 992 45 45 7 157
1973321S11135 1974 125 SI WA INES 1973-11-22 21:00:00 TS -17.7425 125.173 main 0 0 P_____P__PP_P_ SH061974 -17.7874 124.897 -1 -17.7388 125.400 20 26 992 -17.7874 124.897 TC -17.8611 124.944 2 -17.5650 125.500 TC 30 992 6 158
1973321S11135 1974 125 SI WA INES 1973-11-22 22:00:00 TS -17.8326 125.204 25 993 bom main 0 0 P_____O__PP_P_ SH061974 -17.9085 124.969 -1 -17.8000 125.400 20 25 993 -17.9085 124.969 TC -17.9517 124.984 2 -17.6491 125.500 TC 30 992 45 45 5 170
1973321S11135 1974 125 SI WA INES 1973-11-23 00:00:00 TS -17.9889 125.217 main 0 0 O_____P__OO_O_ jtwc_sh SH061974 -18.1000 125.000 -1 -17.9333 125.400 20 25 993 -18.1000 125.000 TC -18.1000 125.000 2 -17.8000 125.500 TC 30 993 4 188
1973321S11135 1974 125 SI WA INES 1973-11-23 01:00:00 TS -18.0471 125.172 25 994 bom main 0 0 P_____O__PP_P_ SH061974 -18.1537 124.916 -1 -18.0000 125.400 20 25 994 -18.1537 124.916 TC -18.1365 124.900 2 -17.8640 125.500 TC 30 993 45 45 5 231
1973321S11135 1974 125 SI WA INES 1973-11-23 03:00:00 TS -18.1356 125.028 main 0 0 P_____P__PP_P_ SH061974 -18.2029 124.625 -1 -18.1412 125.400 20 25 994 -18.2029 124.625 TC -18.1714 124.617 2 -17.9725 125.500 TC 30 994 5 241
1973321S11135 1974 125 SI WA INES 1973-11-23 04:00:00 TS -18.1665 124.941 25 995 bom main 0 0 P_____O__PP_P_ SH061974 -18.2075 124.447 -1 -18.2000 125.400 20 25 995 -18.2075 124.447 TC -18.1748 124.449 2 -18.0188 125.500 TC 30 994 45 45 5 254
1973321S11135 1974 125 SI WA INES 1973-11-23 06:00:00 TS -18.2063 124.767 main 0 0 O_____P__OP_O_ jtwc_sh SH061974 -18.2000 124.100 -1 -18.2721 125.400 20 25 995 -18.2000 124.100 TC -18.1658 124.101 2 -18.1000 125.500 TC 30 995 5 258
1973321S11135 1974 125 SI WA INES 1973-11-23 07:00:00 TS -18.2172 124.682 25 996 bom main 0 0 P_____O__PP_P_ SH061974 -18.1899 123.936 -1 -18.3000 125.400 20 25 996 -18.1899 123.936 TC -18.1586 123.936 2 -18.1338 125.482 TC 29 995 45 45 4 263
1973321S11135 1974 125 SI WA INES 1973-11-23 09:00:00 TS -18.2347 124.532 main 0 0 P_____P__PP_P_ SH061974 -18.1623 123.643 -1 -18.3746 125.400 20 25 996 -18.1623 123.643 TC -18.1518 123.661 2 -18.1924 125.448 TC 27 996 4 262
1973321S11135 1974 125 SI WA INES 1973-11-23 10:00:00 TS -18.2451 124.482 25 997 bom main 0 0 P_____O__PP_P_ SH061974 -18.1578 123.542 -1 -18.4000 125.400 20 25 997 -18.1578 123.542 TC -18.1575 123.566 2 -18.2229 125.445 TC 26 996 45 45 2 225
1973321S11135 1974 125 SI WA INES 1973-11-23 12:00:00 TS -18.2829 124.467 main 0 0 O_____P__OO_O_ jtwc_sh SH061974 -18.2000 123.500 -1 -18.3975 125.400 20 25 997 -18.2000 123.500 TC -18.2000 123.500 2 -18.3000 125.500 TC 25 997 2 161
1973321S11135 1974 125 SI WA INES 1973-11-23 13:00:00 TS -18.3288 124.512 25 998 bom main 0 0 P_____O__PP_P_ SH061974 -18.2684 123.587 -1 -18.4000 125.400 20 25 998 -18.2684 123.587 TC -18.2692 123.577 2 -18.3526 125.569 TC 25 997 45 45 6 129
1973321S11135 1974 125 SI WA INES 1973-11-23 15:00:00 TS -18.4597 124.694 main 0 0 P_____P__PP_P_ SH061974 -18.4626 123.935 -1 -18.4612 125.400 20 25 998 -18.4626 123.935 TC -18.4398 123.852 2 -18.4775 125.775 TC 25 997 7 125
1973321S11135 1974 125 SI WA INES 1973-11-23 16:00:00 TS -18.5372 124.824 25 999 bom main 0 0 P_____O__PP_P_ SH061974 -18.5754 124.170 -1 -18.5000 125.400 20 25 999 -18.5754 124.170 TC -18.5368 124.042 2 -18.5479 125.905 TC 25 997 45 45 10 120
1973321S11135 1974 125 SI WA INES 1973-11-23 18:00:00 TS -18.6976 125.134 main 0 0 O_____P__OP_O_ jtwc_sh SH061974 -18.8000 124.700 -1 -18.5426 125.298 20 25 999 -18.8000 124.700 TC -18.7429 124.507 2 -18.7000 126.200 TC 25 998 11 118
1973321S11135 1974 125 SI WA INES 1973-11-23 19:00:00 TS -18.7863 125.328 25 999 bom main 0 0 P_____O__PP_P_ SH061974 -18.8994 124.936 -1 -18.6000 125.400 20 25 999 -18.8994 124.936 TC -18.8477 124.774 2 -18.7774 126.329 TC 25 998 45 45 15 113
1973321S11135 1974 125 SI WA INES 1973-11-23 21:00:00 TS -18.9908 125.876 main 0 0 P_____P__PP_P_ SH061974 -19.0872 125.447 -1 -18.8511 126.235 20 21 999 -19.0872 125.447 TC -19.0494 125.358 2 -18.9419 126.618 TC 25 998 17 111
1973321S11135 1974 125 SI WA INES 1973-11-23 22:00:00 TS -19.0942 126.181 20 1000 bom main 0 0 P_____O__PP_P_ SH061974 -19.1701 125.721 -1 -19.0000 126.700 20 20 1000 -19.1701 125.721 TC -19.1420 125.668 2 -19.0273 126.787 TC 25 998 45 45 18 109
1973321S11135 1974 125 SI WA INES 1973-11-24 00:00:00 TS -19.2777 126.756 main 0 0 O_____P__OO_O_ jtwc_sh SH061974 -19.3000 126.300 -1 -19.2662 127.237 20 20 1000 -19.3000 126.300 TC -19.3000 126.300 2 -19.2000 127.200 TC 25 999 17 108
1973321S11135 1974 125 SI WA INES 1973-11-24 01:00:00 TS -19.3533 127.051 20 1000 bom main 0 0 P_____O__PP_P_ SH061974 -19.3395 126.602 -1 -19.4000 127.500 20 20 1000 -19.3395 126.602 TC -19.3500 126.598 2 -19.2856 127.450 TC 24 999 45 45 18 104
1973321S11135 1974 125 SI WA INES 1973-11-24 03:00:00 TS -19.4838 127.658 main 0 0 P_____P__PP_P_ SH061974 -19.3799 127.236 -1 -19.6984 128.233 20 20 1000 -19.3799 127.236 TC -19.4249 127.226 2 -19.4540 128.027 TC 22 999 16 101
1973321S11135 1974 125 SI WA INES 1973-11-24 04:00:00 TS -19.5107 127.908 20 1000 bom main 0 0 P_____O__PP_P_ SH061974 -19.3883 127.559 -1 -19.8000 128.600 20 20 1000 -19.3883 127.559 TC -19.4512 127.550 2 -19.5368 128.342 TC 21 999 45 45 15 93
1973321S11135 1974 125 SI WA INES 1973-11-24 06:00:00 TS -19.5191 128.441 main 0 0 O_____P__OP_O_ jtwc_sh SH061974 -19.4000 128.200 -1 -19.8317 129.222 20 20 1000 -19.4000 128.200 TC -19.4856 128.204 2 -19.7000 129.000 TC 20 1000 13 87
1973321S11135 1974 125 SI WA INES 1973-11-24 07:00:00 TS -19.4719 128.597 20 1000 bom main 0 0 P_____O__PP___ SH061974 -19.4192 128.519 -1 -19.8000 129.500 20 20 1000 -19.4192 128.519 TC -19.4952 128.527 2 TC 45 45 13 86
1973321S11135 1974 125 SI WA INES 1973-11-24 09:00:00 TS -19.4727 129.148 main 0 0 P________PP___ SH061974 -19.4574 129.145 -1 20 -19.4574 129.145 TC -19.5031 129.154 2 TC 16 91
1973321S11135 1974 125 SI WA INES 1973-11-24 12:00:00 TS -19.5000 130.000 main 0 0 O________OO___ jtwc_sh SH061974 -19.5000 130.000 -1 -19.5000 130.000 TC -19.5000 130.000 2 15 91
1973321S11135 1974 125 SI WA INES 1973-11-24 15:00:00 TS -19.5035 130.711 main 0 0 P________PP___ SH061974 -19.5072 130.725 -1 -19.5072 130.725 TC -19.4961 130.684 2 12 90
1973321S11135 1974 125 SI WA INES 1973-11-24 18:00:00 TS -19.4985 131.277 main 0 0 O________OP___ jtwc_sh SH061974 -19.5000 131.300 -1 -19.5000 131.300 TC -19.4955 131.232 2 10 90
1973321S11135 1974 125 SI WA INES 1973-11-24 21:00:00 TS -19.4975 131.721 main 0 0 P________PP___ SH061974 -19.4976 131.737 -1 -19.4976 131.737 TC -19.4972 131.688 2 8 90
1973321S11135 1974 125 SI WA INES 1973-11-25 00:00:00 TS -19.5000 132.100 main 0 O________OO___ jtwc_sh SH061974 -19.5000 132.100 -1 -19.5000 132.100 TC -19.5000 132.100 2 7 90

About IBTrACS Database

This database is a web-friendly format of International Best Track Archive for Climate Stewardship (IBTrACS), a global best track data archive curated by NOAA dating back to 1842.

Updated: 2021-10-08